createdAt,value
2016-11-20T00:00:12.067Z,18.67
2016-11-20T00:01:12.426Z,18.71
2016-11-20T00:02:13.019Z,18.66
2016-11-20T00:03:12.491Z,18.69
2016-11-20T00:04:12.420Z,18.67
2016-11-20T00:05:12.449Z,18.68
2016-11-20T00:06:12.790Z,18.72
2016-11-20T00:07:12.309Z,18.68
2016-11-20T00:08:12.305Z,18.66
2016-11-20T00:09:12.846Z,18.66
2016-11-20T00:10:11.771Z,18.67
2016-11-20T00:11:12.327Z,18.66
2016-11-20T00:12:13.892Z,18.66
2016-11-20T00:13:10.751Z,18.66
2016-11-20T00:14:12.807Z,18.66
2016-11-20T00:15:12.006Z,18.67
2016-11-20T00:16:10.861Z,18.66
2016-11-20T00:17:14.690Z,18.66
2016-11-20T00:18:12.271Z,18.70
2016-11-20T00:19:12.425Z,18.67
2016-11-20T00:20:13.129Z,18.66
2016-11-20T00:21:12.464Z,18.69
2016-11-20T00:22:09.638Z,18.65
2016-11-20T00:23:13.412Z,18.66
2016-11-20T00:24:12.384Z,18.65
2016-11-20T00:25:12.910Z,18.69
2016-11-20T00:26:13.674Z,18.66
2016-11-20T00:27:11.857Z,18.66
2016-11-20T00:28:13.455Z,18.66
2016-11-20T00:29:12.971Z,18.67
2016-11-20T00:30:13.001Z,18.71
2016-11-20T00:31:12.098Z,18.66
2016-11-20T00:32:11.994Z,18.65
2016-11-20T00:33:12.702Z,18.65
2016-11-20T00:34:12.443Z,18.66
2016-11-20T00:35:13.991Z,18.65
2016-11-20T00:36:12.204Z,18.64
2016-11-20T00:37:12.719Z,18.65
2016-11-20T00:38:12.310Z,18.65
2016-11-20T00:39:12.713Z,18.68
2016-11-20T00:40:12.646Z,18.66
2016-11-20T00:41:12.274Z,18.65
2016-11-20T00:42:10.958Z,18.63
2016-11-20T00:43:12.110Z,18.63
2016-11-20T00:44:12.117Z,18.63
2016-11-20T00:45:12.079Z,18.65
2016-11-20T00:46:12.997Z,18.63
2016-11-20T00:47:12.726Z,18.64
2016-11-20T00:48:12.387Z,18.64
2016-11-20T00:49:13.035Z,18.64
2016-11-20T00:50:12.556Z,18.68
2016-11-20T00:51:11.672Z,18.64
2016-11-20T00:52:11.655Z,18.63
2016-11-20T00:53:12.268Z,18.62
2016-11-20T00:54:12.798Z,18.64
2016-11-20T00:55:12.425Z,18.63
2016-11-20T00:56:12.476Z,18.63
2016-11-20T00:57:11.429Z,18.62
2016-11-20T00:58:11.560Z,19.16
2016-11-20T00:59:12.589Z,18.87
2016-11-20T01:00:12.573Z,18.71
2016-11-20T01:01:14.364Z,18.67
2016-11-20T01:02:13.633Z,18.65
2016-11-20T01:03:11.541Z,18.63
2016-11-20T01:04:15.216Z,18.64
2016-11-20T01:05:13.359Z,18.64
2016-11-20T01:06:12.319Z,18.64
2016-11-20T01:07:13.952Z,18.63
2016-11-20T01:08:13.981Z,18.64
2016-11-20T01:09:13.821Z,18.63
2016-11-20T01:10:12.301Z,18.71
2016-11-20T01:11:12.338Z,18.64
2016-11-20T01:12:14.787Z,18.64
2016-11-20T01:13:13.671Z,18.63
2016-11-20T01:14:13.580Z,18.64
2016-11-20T01:15:12.978Z,18.62
2016-11-20T01:16:17.652Z,18.63
2016-11-20T01:17:20.066Z,18.63
2016-11-20T01:18:14.175Z,18.64
2016-11-20T01:19:14.980Z,18.62
2016-11-20T01:20:11.963Z,18.62
2016-11-20T01:21:13.525Z,18.63
2016-11-20T01:22:14.584Z,18.66
2016-11-20T01:23:14.399Z,18.63
2016-11-20T01:24:13.399Z,18.64
2016-11-20T01:25:14.876Z,18.64
2016-11-20T01:26:12.219Z,18.64
2016-11-20T01:27:12.239Z,18.63
2016-11-20T01:28:13.683Z,18.65
2016-11-20T01:29:12.261Z,18.69
2016-11-20T01:30:12.835Z,18.64
2016-11-20T01:31:19.019Z,18.63
2016-11-20T01:32:12.652Z,18.68
2016-11-20T01:33:12.814Z,18.64
2016-11-20T01:34:13.155Z,18.63
2016-11-20T01:35:13.150Z,18.63
2016-11-20T01:36:13.271Z,18.62
2016-11-20T01:37:12.766Z,18.62
2016-11-20T01:38:11.834Z,18.62
2016-11-20T01:39:11.979Z,18.62
2016-11-20T01:40:12.613Z,18.62
2016-11-20T01:41:12.406Z,18.65
2016-11-20T01:42:13.023Z,19.14
2016-11-20T01:43:13.389Z,18.67
2016-11-20T01:44:13.929Z,18.64
2016-11-20T01:45:12.706Z,18.63
2016-11-20T01:46:13.484Z,18.64
2016-11-20T01:47:12.343Z,18.63
2016-11-20T01:48:12.599Z,18.65
2016-11-20T01:49:12.151Z,18.66
2016-11-20T01:50:12.230Z,18.62
2016-11-20T01:51:12.309Z,18.64
2016-11-20T01:52:13.216Z,18.63
2016-11-20T01:53:17.811Z,18.62
2016-11-20T01:54:12.554Z,18.63
2016-11-20T01:55:13.339Z,18.63
2016-11-20T01:56:12.655Z,18.62
2016-11-20T01:57:12.113Z,18.62
2016-11-20T01:58:12.662Z,18.62
2016-11-20T01:59:12.278Z,18.62
2016-11-20T02:00:19.391Z,18.62
2016-11-20T02:01:14.235Z,18.62
2016-11-20T02:02:12.854Z,18.62
2016-11-20T02:03:12.443Z,18.61
2016-11-20T02:04:13.323Z,18.62
2016-11-20T02:05:14.010Z,18.61
2016-11-20T02:06:13.244Z,18.66
2016-11-20T02:07:12.782Z,18.62
2016-11-20T02:08:12.554Z,18.62
2016-11-20T02:09:10.483Z,18.61
2016-11-20T02:10:12.403Z,18.83
2016-11-20T02:11:12.412Z,18.66
2016-11-20T02:12:14.055Z,18.64
2016-11-20T02:13:13.631Z,18.63
2016-11-20T02:14:10.765Z,18.61
2016-11-20T02:15:12.339Z,18.63
2016-11-20T02:16:12.736Z,18.61
2016-11-20T02:17:13.601Z,18.61
2016-11-20T02:18:12.048Z,18.64
2016-11-20T02:19:12.025Z,18.60
2016-11-20T02:20:12.457Z,18.65
2016-11-20T02:21:12.484Z,18.61
2016-11-20T02:22:13.151Z,18.61
2016-11-20T02:23:10.752Z,18.60
2016-11-20T02:24:12.318Z,18.61
2016-11-20T02:25:12.264Z,18.61
2016-11-20T02:26:12.793Z,18.67
2016-11-20T02:27:12.337Z,18.69
2016-11-20T02:28:17.755Z,18.63
2016-11-20T02:29:12.441Z,18.61
2016-11-20T02:30:13.335Z,18.60
2016-11-20T02:31:13.500Z,18.61
2016-11-20T02:32:13.056Z,18.62
2016-11-20T02:33:12.765Z,18.61
2016-11-20T02:34:13.305Z,18.61
2016-11-20T02:35:13.463Z,18.62
2016-11-20T02:36:13.701Z,18.64
2016-11-20T02:37:12.462Z,18.61
2016-11-20T02:38:15.203Z,18.61
2016-11-20T02:39:14.046Z,18.60
2016-11-20T02:40:13.605Z,18.62
2016-11-20T02:41:12.407Z,18.61
2016-11-20T02:42:13.937Z,18.63
2016-11-20T02:43:12.127Z,18.62
2016-11-20T02:44:12.300Z,18.63
2016-11-20T02:45:12.217Z,18.62
2016-11-20T02:46:13.401Z,18.61
2016-11-20T02:47:14.194Z,18.62
2016-11-20T02:48:10.991Z,18.62
2016-11-20T02:49:12.438Z,18.65
2016-11-20T02:50:12.911Z,18.64
2016-11-20T02:51:12.118Z,18.63
2016-11-20T02:52:12.145Z,18.63
2016-11-20T02:53:12.569Z,18.63
2016-11-20T02:54:10.661Z,18.61
2016-11-20T02:55:11.860Z,19.14
2016-11-20T02:56:10.723Z,19.19
2016-11-20T02:57:10.585Z,19.20
2016-11-20T02:58:12.013Z,18.89
2016-11-20T02:59:12.745Z,18.72
2016-11-20T03:00:12.956Z,18.67
2016-11-20T03:01:12.575Z,18.62
2016-11-20T03:02:12.327Z,18.62
2016-11-20T03:03:15.012Z,18.62
2016-11-20T03:04:12.388Z,18.60
2016-11-20T03:05:12.362Z,18.61
2016-11-20T03:06:12.375Z,18.62
2016-11-20T03:07:13.482Z,18.62
2016-11-20T03:08:13.146Z,18.62
2016-11-20T03:09:11.117Z,18.61
2016-11-20T03:10:14.814Z,19.14
2016-11-20T03:11:10.905Z,19.18
2016-11-20T03:12:12.218Z,19.21
2016-11-20T03:13:12.149Z,19.21
2016-11-20T03:14:12.205Z,18.69
2016-11-20T03:15:14.539Z,18.65
2016-11-20T03:16:11.597Z,18.62
2016-11-20T03:17:14.446Z,18.61
2016-11-20T03:18:12.538Z,18.60
2016-11-20T03:19:12.368Z,18.60
2016-11-20T03:20:12.854Z,18.60
2016-11-20T03:21:12.658Z,18.60
2016-11-20T03:22:12.638Z,18.60
2016-11-20T03:23:13.902Z,18.60
2016-11-20T03:24:12.325Z,18.67
2016-11-20T03:25:12.345Z,18.59
2016-11-20T03:26:13.061Z,18.60
2016-11-20T03:27:12.152Z,18.58
2016-11-20T03:28:12.957Z,18.60
2016-11-20T03:29:11.656Z,18.59
2016-11-20T03:30:12.449Z,18.59
2016-11-20T03:31:13.177Z,18.60
2016-11-20T03:32:13.626Z,18.61
2016-11-20T03:33:11.708Z,18.61
2016-11-20T03:34:13.347Z,18.60
2016-11-20T03:35:12.298Z,18.61
2016-11-20T03:36:13.148Z,18.61
2016-11-20T03:37:12.213Z,18.62
2016-11-20T03:38:10.967Z,18.62
2016-11-20T03:39:13.645Z,19.15
2016-11-20T03:40:11.864Z,19.21
2016-11-20T03:41:11.942Z,19.22
2016-11-20T03:42:12.754Z,19.23
2016-11-20T03:43:12.848Z,19.23
2016-11-20T03:44:12.585Z,18.91
2016-11-20T03:45:09.919Z,18.71
2016-11-20T03:46:14.291Z,18.66
2016-11-20T03:47:12.404Z,18.63
2016-11-20T03:48:13.262Z,18.62
2016-11-20T03:49:12.909Z,18.62
2016-11-20T03:50:12.501Z,18.62
2016-11-20T03:51:13.331Z,18.61
2016-11-20T03:52:13.378Z,18.62
2016-11-20T03:53:12.989Z,18.62
2016-11-20T03:54:12.723Z,18.62
2016-11-20T03:55:12.493Z,18.63
2016-11-20T03:56:12.770Z,18.62
2016-11-20T03:57:12.571Z,18.63
2016-11-20T03:58:13.143Z,18.64
2016-11-20T03:59:13.165Z,18.61
2016-11-20T04:00:11.038Z,18.62
2016-11-20T04:01:12.051Z,18.62
2016-11-20T04:02:12.563Z,18.66
2016-11-20T04:03:12.207Z,18.67
2016-11-20T04:04:12.884Z,18.62
2016-11-20T04:05:11.892Z,18.61
2016-11-20T04:06:11.869Z,18.61
2016-11-20T04:07:12.285Z,18.63
2016-11-20T04:08:12.232Z,18.60
2016-11-20T04:09:12.876Z,18.60
2016-11-20T04:10:12.050Z,18.61
2016-11-20T04:11:12.023Z,18.60
2016-11-20T04:12:12.252Z,18.59
2016-11-20T04:13:11.457Z,18.59
2016-11-20T04:14:11.954Z,18.60
2016-11-20T04:15:12.703Z,18.59
2016-11-20T04:16:13.082Z,18.58
2016-11-20T04:17:12.204Z,18.58
2016-11-20T04:18:14.205Z,18.58
2016-11-20T04:19:13.369Z,18.60
2016-11-20T04:20:13.165Z,18.58
2016-11-20T04:21:12.977Z,18.59
2016-11-20T04:22:12.023Z,18.58
2016-11-20T04:23:12.294Z,18.58
2016-11-20T04:24:13.315Z,18.57
2016-11-20T04:25:12.347Z,18.58
2016-11-20T04:26:12.876Z,18.61
2016-11-20T04:27:12.268Z,19.10
2016-11-20T04:28:12.626Z,19.16
2016-11-20T04:29:11.722Z,19.18
2016-11-20T04:30:20.319Z,19.19
2016-11-20T04:31:12.878Z,19.00
2016-11-20T04:32:11.925Z,18.68
2016-11-20T04:33:10.578Z,18.62
2016-11-20T04:34:11.889Z,18.61
2016-11-20T04:35:11.915Z,18.61
2016-11-20T04:36:12.192Z,18.60
2016-11-20T04:37:12.154Z,18.60
2016-11-20T04:38:13.005Z,18.58
2016-11-20T04:39:13.854Z,18.58
2016-11-20T04:40:12.072Z,18.58
2016-11-20T04:41:12.093Z,18.58
2016-11-20T04:42:12.913Z,18.56
2016-11-20T04:43:12.488Z,18.60
2016-11-20T04:44:12.980Z,19.10
2016-11-20T04:45:12.122Z,19.15
2016-11-20T04:46:12.117Z,19.17
2016-11-20T04:47:13.043Z,19.19
2016-11-20T04:48:10.635Z,19.19
2016-11-20T04:49:11.714Z,19.20
2016-11-20T04:50:11.775Z,19.20
2016-11-20T04:51:10.742Z,19.18
2016-11-20T04:52:11.953Z,18.66
2016-11-20T04:53:10.503Z,18.62
2016-11-20T04:54:12.900Z,18.60
2016-11-20T04:55:12.075Z,18.59
2016-11-20T04:56:13.965Z,18.58
2016-11-20T04:57:11.838Z,18.57
2016-11-20T04:58:12.407Z,18.59
2016-11-20T04:59:18.220Z,18.61
2016-11-20T05:00:12.884Z,18.56
2016-11-20T05:01:11.981Z,18.56
2016-11-20T05:02:13.765Z,18.56
2016-11-20T05:03:12.710Z,18.56
2016-11-20T05:04:12.300Z,18.58
2016-11-20T05:05:12.324Z,19.07
2016-11-20T05:06:12.842Z,19.12
2016-11-20T05:07:11.758Z,19.16
2016-11-20T05:08:11.682Z,19.17
2016-11-20T05:09:12.340Z,19.20
2016-11-20T05:10:12.278Z,18.65
2016-11-20T05:11:12.262Z,18.61
2016-11-20T05:12:12.373Z,18.58
2016-11-20T05:13:13.007Z,18.56
2016-11-20T05:14:14.271Z,18.56
2016-11-20T05:15:12.747Z,18.57
2016-11-20T05:16:12.283Z,18.54
2016-11-20T05:17:16.035Z,18.55
2016-11-20T05:18:12.674Z,18.58
2016-11-20T05:19:12.323Z,18.55
2016-11-20T05:20:12.970Z,18.57
2016-11-20T05:21:13.419Z,18.55
2016-11-20T05:22:12.783Z,18.59
2016-11-20T05:23:14.547Z,18.55
2016-11-20T05:24:11.735Z,18.55
2016-11-20T05:25:16.578Z,18.55
2016-11-20T05:26:13.298Z,18.54
2016-11-20T05:27:12.282Z,18.54
2016-11-20T05:28:12.085Z,18.55
2016-11-20T05:29:14.376Z,18.55
2016-11-20T05:30:12.240Z,18.54
2016-11-20T05:31:12.858Z,18.54
2016-11-20T05:32:13.450Z,18.54
2016-11-20T05:33:12.935Z,18.58
2016-11-20T05:34:12.451Z,18.57
2016-11-20T05:35:13.523Z,18.53
2016-11-20T05:36:13.296Z,18.52
2016-11-20T05:37:12.851Z,18.53
2016-11-20T05:38:12.461Z,18.58
2016-11-20T05:39:13.381Z,18.54
2016-11-20T05:40:13.953Z,18.53
2016-11-20T05:41:09.232Z,18.53
2016-11-20T05:42:12.851Z,18.54
2016-11-20T05:43:12.969Z,18.55
2016-11-20T05:44:12.357Z,18.58
2016-11-20T05:45:13.976Z,18.56
2016-11-20T05:46:12.972Z,18.57
2016-11-20T05:47:12.921Z,18.56
2016-11-20T05:48:12.527Z,18.55
2016-11-20T05:49:13.140Z,18.56
2016-11-20T05:50:12.042Z,18.56
2016-11-20T05:51:12.773Z,18.56
2016-11-20T05:52:12.499Z,18.57
2016-11-20T05:53:12.358Z,18.56
2016-11-20T05:54:13.223Z,18.56
2016-11-20T05:55:10.323Z,18.55
2016-11-20T05:56:11.588Z,18.57
2016-11-20T05:57:10.570Z,18.56
2016-11-20T05:58:10.723Z,19.08
2016-11-20T05:59:13.179Z,19.13
2016-11-20T06:00:12.883Z,19.15
2016-11-20T06:01:12.675Z,19.18
2016-11-20T06:02:11.695Z,19.19
2016-11-20T06:03:10.561Z,19.17
2016-11-20T06:04:12.584Z,19.18
2016-11-20T06:05:11.664Z,18.66
2016-11-20T06:06:12.371Z,18.62
2016-11-20T06:07:12.907Z,18.64
2016-11-20T06:08:13.129Z,18.58
2016-11-20T06:09:12.811Z,18.63
2016-11-20T06:10:12.541Z,18.58
2016-11-20T06:11:12.176Z,18.60
2016-11-20T06:12:12.082Z,18.57
2016-11-20T06:13:12.180Z,18.56
2016-11-20T06:14:11.947Z,18.55
2016-11-20T06:15:10.813Z,18.54
2016-11-20T06:16:12.507Z,19.09
2016-11-20T06:17:14.403Z,19.14
2016-11-20T06:18:09.862Z,19.17
2016-11-20T06:19:12.609Z,19.18
2016-11-20T06:20:11.682Z,18.83
2016-11-20T06:21:11.797Z,18.64
2016-11-20T06:22:11.791Z,18.60
2016-11-20T06:23:12.512Z,18.59
2016-11-20T06:24:12.381Z,18.57
2016-11-20T06:25:12.298Z,18.56
2016-11-20T06:26:12.637Z,18.62
2016-11-20T06:27:11.780Z,18.55
2016-11-20T06:28:11.858Z,18.57
2016-11-20T06:29:11.930Z,18.58
2016-11-20T06:30:12.518Z,18.57
2016-11-20T06:31:12.856Z,18.61
2016-11-20T06:32:11.890Z,18.58
2016-11-20T06:33:13.662Z,18.58
2016-11-20T06:34:11.616Z,18.59
2016-11-20T06:35:10.538Z,18.57
2016-11-20T06:36:12.339Z,18.75
2016-11-20T06:37:12.400Z,18.65
2016-11-20T06:38:12.966Z,18.62
2016-11-20T06:39:12.740Z,18.62
2016-11-20T06:40:11.741Z,18.60
2016-11-20T06:41:11.902Z,18.60
2016-11-20T06:42:11.923Z,18.60
2016-11-20T06:43:12.663Z,18.59
2016-11-20T06:44:12.579Z,18.61
2016-11-20T06:45:11.960Z,18.64
2016-11-20T06:46:11.953Z,18.60
2016-11-20T06:47:12.083Z,18.59
2016-11-20T06:48:12.680Z,18.60
2016-11-20T06:49:12.518Z,18.60
2016-11-20T06:50:12.506Z,18.61
2016-11-20T06:51:18.031Z,18.62
2016-11-20T06:52:12.602Z,18.69
2016-11-20T06:53:12.291Z,18.63
2016-11-20T06:54:12.448Z,18.62
2016-11-20T06:55:13.257Z,18.63
2016-11-20T06:56:12.040Z,18.63
2016-11-20T06:57:13.692Z,18.62
2016-11-20T06:58:11.792Z,18.63
2016-11-20T06:59:12.760Z,18.63
2016-11-20T07:00:12.689Z,18.62
2016-11-20T07:01:12.260Z,18.62
2016-11-20T07:02:13.875Z,18.62
2016-11-20T07:03:12.420Z,18.63
2016-11-20T07:04:12.570Z,18.63
2016-11-20T07:05:13.480Z,18.63
2016-11-20T07:06:13.304Z,18.64
2016-11-20T07:07:13.080Z,18.64
2016-11-20T07:08:10.732Z,18.64
2016-11-20T07:09:12.624Z,19.19
2016-11-20T07:10:12.321Z,19.22
2016-11-20T07:11:13.070Z,19.26
2016-11-20T07:12:14.629Z,19.25
2016-11-20T07:13:12.206Z,19.27
2016-11-20T07:14:12.226Z,19.27
2016-11-20T07:15:12.719Z,18.77
2016-11-20T07:16:11.534Z,18.69
2016-11-20T07:17:12.047Z,18.72
2016-11-20T07:18:11.864Z,18.66
2016-11-20T07:19:12.003Z,18.65
2016-11-20T07:20:12.003Z,18.65
2016-11-20T07:21:12.669Z,18.64
2016-11-20T07:22:11.717Z,18.64
2016-11-20T07:23:12.903Z,18.65
2016-11-20T07:24:12.852Z,18.64
2016-11-20T07:25:13.308Z,18.64
2016-11-20T07:26:12.317Z,18.64
2016-11-20T07:27:14.294Z,18.62
2016-11-20T07:28:12.224Z,18.65
2016-11-20T07:29:12.834Z,18.69
2016-11-20T07:30:12.683Z,18.66
2016-11-20T07:31:12.615Z,18.67
2016-11-20T07:32:11.619Z,18.67
2016-11-20T07:33:13.299Z,18.68
2016-11-20T07:34:13.693Z,18.67
2016-11-20T07:35:12.252Z,18.72
2016-11-20T07:36:13.843Z,18.69
2016-11-20T07:37:12.055Z,18.68
2016-11-20T07:38:12.919Z,18.69
2016-11-20T07:39:12.555Z,18.68
2016-11-20T07:40:12.405Z,18.69
2016-11-20T07:41:12.402Z,18.70
2016-11-20T07:42:12.410Z,18.70
2016-11-20T07:43:12.880Z,18.73
2016-11-20T07:44:11.892Z,18.68
2016-11-20T07:45:14.609Z,18.64
2016-11-20T07:46:10.463Z,18.64
2016-11-20T07:47:09.693Z,18.65
2016-11-20T07:48:12.035Z,18.66
2016-11-20T07:49:12.881Z,18.66
2016-11-20T07:50:11.933Z,18.67
2016-11-20T07:51:10.081Z,18.65
2016-11-20T07:52:12.279Z,18.67
2016-11-20T07:53:12.993Z,18.66
2016-11-20T07:54:11.964Z,18.67
2016-11-20T07:55:11.982Z,18.66
2016-11-20T07:56:12.142Z,18.67
2016-11-20T07:57:12.817Z,18.63
2016-11-20T07:58:12.398Z,18.64
2016-11-20T07:59:13.084Z,18.59
2016-11-20T08:00:11.932Z,18.61
2016-11-20T08:01:12.573Z,18.64
2016-11-20T08:02:11.537Z,18.69
2016-11-20T08:03:12.522Z,18.69
2016-11-20T08:04:13.404Z,18.69
2016-11-20T08:05:12.487Z,18.68
2016-11-20T08:06:12.863Z,18.67
2016-11-20T08:07:12.473Z,18.68
2016-11-20T08:08:12.596Z,18.67
2016-11-20T08:09:12.308Z,18.72
2016-11-20T08:10:12.516Z,18.67
2016-11-20T08:11:14.418Z,18.67
2016-11-20T08:12:12.374Z,18.67
2016-11-20T08:13:13.103Z,18.67
2016-11-20T08:14:13.772Z,18.66
2016-11-20T08:15:13.696Z,18.66
2016-11-20T08:16:12.647Z,18.66
2016-11-20T08:17:11.819Z,18.66
2016-11-20T08:18:18.133Z,18.67
2016-11-20T08:19:12.198Z,18.66
2016-11-20T08:20:13.038Z,18.67
2016-11-20T08:21:12.813Z,18.67
2016-11-20T08:22:12.191Z,18.73
2016-11-20T08:23:12.081Z,18.67
2016-11-20T08:24:12.229Z,18.68
2016-11-20T08:25:12.609Z,18.72
2016-11-20T08:26:12.076Z,18.69
2016-11-20T08:27:12.304Z,18.70
2016-11-20T08:28:12.864Z,19.21
2016-11-20T08:29:10.488Z,19.25
2016-11-20T08:30:10.307Z,18.74
2016-11-20T08:31:11.758Z,19.22
2016-11-20T08:32:11.997Z,19.28
2016-11-20T08:33:13.126Z,19.29
2016-11-20T08:34:12.842Z,19.30
2016-11-20T08:35:13.007Z,19.31
2016-11-20T08:36:12.096Z,18.97
2016-11-20T08:37:13.276Z,18.83
2016-11-20T08:38:12.452Z,18.73
2016-11-20T08:39:11.583Z,18.71
2016-11-20T08:40:12.224Z,18.89
2016-11-20T08:41:12.337Z,18.73
2016-11-20T08:42:12.982Z,18.77
2016-11-20T08:43:12.543Z,18.74
2016-11-20T08:44:11.507Z,18.69
2016-11-20T08:45:12.400Z,18.70
2016-11-20T08:46:12.375Z,18.69
2016-11-20T08:47:12.460Z,18.70
2016-11-20T08:48:12.836Z,18.75
2016-11-20T08:49:12.409Z,18.69
2016-11-20T08:50:10.421Z,18.69
2016-11-20T08:51:12.508Z,18.70
2016-11-20T08:52:12.249Z,18.70
2016-11-20T08:53:12.992Z,18.69
2016-11-20T08:54:10.031Z,18.68
2016-11-20T08:55:12.236Z,19.22
2016-11-20T08:56:12.274Z,19.25
2016-11-20T08:57:12.387Z,19.26
2016-11-20T08:58:11.557Z,19.32
2016-11-20T08:59:12.657Z,18.97
2016-11-20T09:00:11.649Z,18.79
2016-11-20T09:01:12.301Z,18.79
2016-11-20T09:02:12.897Z,18.71
2016-11-20T09:03:18.410Z,18.70
2016-11-20T09:04:12.279Z,18.69
2016-11-20T09:05:14.045Z,18.68
2016-11-20T09:06:11.959Z,18.67
2016-11-20T09:07:12.020Z,18.68
2016-11-20T09:08:13.656Z,18.69
2016-11-20T09:09:10.920Z,18.66
2016-11-20T09:10:12.566Z,18.67
2016-11-20T09:11:12.660Z,18.66
2016-11-20T09:12:13.940Z,18.68
2016-11-20T09:13:12.449Z,18.71
2016-11-20T09:14:14.119Z,18.67
2016-11-20T09:15:17.831Z,18.67
2016-11-20T09:16:11.809Z,18.66
2016-11-20T09:17:09.989Z,18.65
2016-11-20T09:18:18.210Z,19.19
2016-11-20T09:19:12.684Z,18.74
2016-11-20T09:20:12.362Z,18.69
2016-11-20T09:21:13.103Z,18.68
2016-11-20T09:22:12.074Z,18.70
2016-11-20T09:23:12.158Z,18.68
2016-11-20T09:24:09.377Z,18.67
2016-11-20T09:25:11.199Z,18.68
2016-11-20T09:26:13.131Z,18.68
2016-11-20T09:27:10.744Z,18.69
2016-11-20T09:28:11.897Z,19.22
2016-11-20T09:29:12.630Z,19.27
2016-11-20T09:30:13.869Z,18.75
2016-11-20T09:31:12.089Z,18.73
2016-11-20T09:32:12.074Z,18.70
2016-11-20T09:33:12.706Z,18.68
2016-11-20T09:34:12.486Z,18.68
2016-11-20T09:35:12.548Z,18.67
2016-11-20T09:36:12.663Z,18.67
2016-11-20T09:37:13.211Z,18.66
2016-11-20T09:38:12.540Z,18.71
2016-11-20T09:39:11.279Z,18.68
2016-11-20T09:40:12.365Z,18.71
2016-11-20T09:41:12.455Z,18.69
2016-11-20T09:42:12.919Z,18.71
2016-11-20T09:43:13.878Z,18.71
2016-11-20T09:44:12.695Z,18.71
2016-11-20T09:45:10.401Z,18.71
2016-11-20T09:46:12.423Z,18.73
2016-11-20T09:47:12.313Z,18.73
2016-11-20T09:48:14.847Z,18.72
2016-11-20T09:49:11.814Z,18.72
2016-11-20T09:50:14.239Z,18.73
2016-11-20T09:51:12.376Z,18.72
2016-11-20T09:52:12.773Z,18.73
2016-11-20T09:53:12.503Z,18.74
2016-11-20T09:54:13.075Z,18.74
2016-11-20T09:55:12.325Z,18.74
2016-11-20T09:56:12.410Z,18.73
2016-11-20T09:57:10.790Z,18.73
2016-11-20T09:58:13.079Z,18.72
2016-11-20T09:59:12.087Z,18.72
2016-11-20T10:00:12.069Z,18.73
2016-11-20T10:01:12.808Z,18.73
2016-11-20T10:02:11.987Z,18.74
2016-11-20T10:03:12.106Z,18.74
2016-11-20T10:04:12.610Z,18.74
2016-11-20T10:05:13.240Z,18.74
2016-11-20T10:06:12.884Z,18.75
2016-11-20T10:07:12.854Z,18.75
2016-11-20T10:08:12.086Z,18.75
2016-11-20T10:09:11.952Z,18.76
2016-11-20T10:10:12.427Z,18.80
2016-11-20T10:11:13.015Z,18.77
2016-11-20T10:12:13.057Z,18.77
2016-11-20T10:13:12.450Z,18.80
2016-11-20T10:14:11.636Z,18.78
2016-11-20T10:15:12.249Z,18.79
2016-11-20T10:16:12.300Z,18.78
2016-11-20T10:17:13.957Z,18.79
2016-11-20T10:18:12.186Z,18.81
2016-11-20T10:19:12.276Z,18.80
2016-11-20T10:20:12.283Z,18.81
2016-11-20T10:21:12.108Z,18.80
2016-11-20T10:22:15.048Z,18.81
2016-11-20T10:23:12.333Z,18.87
2016-11-20T10:24:13.109Z,18.82
2016-11-20T10:25:12.086Z,18.82
2016-11-20T10:26:13.969Z,18.82
2016-11-20T10:27:12.528Z,18.82
2016-11-20T10:28:12.433Z,18.82
2016-11-20T10:29:12.386Z,18.82
2016-11-20T10:30:13.048Z,18.82
2016-11-20T10:31:11.956Z,18.84
2016-11-20T10:32:13.857Z,18.84
2016-11-20T10:33:11.728Z,18.84
2016-11-20T10:34:11.809Z,18.83
2016-11-20T10:35:13.678Z,18.84
2016-11-20T10:36:12.448Z,18.85
2016-11-20T10:37:17.596Z,18.83
2016-11-20T10:38:10.652Z,18.82
2016-11-20T10:39:16.670Z,18.84
2016-11-20T10:40:12.425Z,18.83
2016-11-20T10:41:12.792Z,18.86
2016-11-20T10:42:11.823Z,18.83
2016-11-20T10:43:14.624Z,18.84
2016-11-20T10:44:12.904Z,18.84
2016-11-20T10:45:12.174Z,18.89
2016-11-20T10:46:12.200Z,18.85
2016-11-20T10:47:14.032Z,18.85
2016-11-20T10:48:13.160Z,18.85
2016-11-20T10:49:13.619Z,18.83
2016-11-20T10:50:12.146Z,18.87
2016-11-20T10:51:13.955Z,18.84
2016-11-20T10:52:12.109Z,18.84
2016-11-20T10:53:13.988Z,18.84
2016-11-20T10:54:12.425Z,18.88
2016-11-20T10:55:12.947Z,18.84
2016-11-20T10:56:12.519Z,18.85
2016-11-20T10:57:12.914Z,18.88
2016-11-20T10:58:12.006Z,18.85
2016-11-20T10:59:12.015Z,18.84
2016-11-20T11:00:12.627Z,18.83
2016-11-20T11:01:11.784Z,18.84
2016-11-20T11:02:11.926Z,18.84
2016-11-20T11:03:12.070Z,18.84
2016-11-20T11:04:10.669Z,18.83
2016-11-20T11:05:11.892Z,18.84
2016-11-20T11:06:11.898Z,18.85
2016-11-20T11:07:12.358Z,18.88
2016-11-20T11:08:13.061Z,18.84
2016-11-20T11:09:13.815Z,18.84
2016-11-20T11:10:10.723Z,18.83
2016-11-20T11:11:10.618Z,19.36
2016-11-20T11:12:12.519Z,19.42
2016-11-20T11:13:12.476Z,19.44
2016-11-20T11:14:12.352Z,19.45
2016-11-20T11:15:12.399Z,19.46
2016-11-20T11:16:12.258Z,19.46
2016-11-20T11:17:12.870Z,19.47
2016-11-20T11:18:11.932Z,18.95
2016-11-20T11:19:12.311Z,18.92
2016-11-20T11:20:12.969Z,18.88
2016-11-20T11:21:13.514Z,18.86
2016-11-20T11:22:12.423Z,18.85
2016-11-20T11:23:12.456Z,18.86
2016-11-20T11:24:13.154Z,18.83
2016-11-20T11:25:13.807Z,18.84
2016-11-20T11:26:09.667Z,18.84
2016-11-20T11:27:12.641Z,19.37
2016-11-20T11:28:11.724Z,19.06
2016-11-20T11:29:12.006Z,18.92
2016-11-20T11:30:12.686Z,18.93
2016-11-20T11:31:11.912Z,18.87
2016-11-20T11:32:12.525Z,18.89
2016-11-20T11:33:12.953Z,19.39
2016-11-20T11:34:12.564Z,19.43
2016-11-20T11:35:12.548Z,19.45
2016-11-20T11:36:13.764Z,19.47
2016-11-20T11:37:11.703Z,18.97
2016-11-20T11:38:11.866Z,18.91
2016-11-20T11:39:12.053Z,18.89
2016-11-20T11:40:12.099Z,18.88
2016-11-20T11:41:12.144Z,18.87
2016-11-20T11:42:12.643Z,18.86
2016-11-20T11:43:12.402Z,18.86
2016-11-20T11:44:12.938Z,18.88
2016-11-20T11:45:12.173Z,18.86
2016-11-20T11:46:12.703Z,18.90
2016-11-20T11:47:13.311Z,18.85
2016-11-20T11:48:13.001Z,18.83
2016-11-20T11:49:12.014Z,18.84
2016-11-20T11:50:12.843Z,18.84
2016-11-20T11:51:12.055Z,18.85
2016-11-20T11:52:10.787Z,18.83
2016-11-20T11:53:10.823Z,18.81
2016-11-20T11:54:12.432Z,19.33
2016-11-20T11:55:12.975Z,18.89
2016-11-20T11:56:12.639Z,18.85
2016-11-20T11:57:12.002Z,18.86
2016-11-20T11:58:12.867Z,18.86
2016-11-20T11:59:11.997Z,18.84
2016-11-20T12:00:14.236Z,18.84
2016-11-20T12:01:12.894Z,18.84
2016-11-20T12:02:10.769Z,18.83
2016-11-20T12:03:12.004Z,19.35
2016-11-20T12:04:13.730Z,18.90
2016-11-20T12:05:13.551Z,18.88
2016-11-20T12:06:12.544Z,18.86
2016-11-20T12:07:13.128Z,18.87
2016-11-20T12:08:12.562Z,18.92
2016-11-20T12:09:11.635Z,18.87
2016-11-20T12:10:11.898Z,18.86
2016-11-20T12:11:12.695Z,18.88
2016-11-20T12:12:11.871Z,18.87
2016-11-20T12:13:12.527Z,18.87
2016-11-20T12:14:11.547Z,18.87
2016-11-20T12:15:12.065Z,18.89
2016-11-20T12:16:12.891Z,18.87
2016-11-20T12:17:12.081Z,18.87
2016-11-20T12:18:12.795Z,18.85
2016-11-20T12:19:12.508Z,18.86
2016-11-20T12:20:13.688Z,18.85
2016-11-20T12:21:11.796Z,18.84
2016-11-20T12:22:13.654Z,18.85
2016-11-20T12:23:12.347Z,18.88
2016-11-20T12:24:13.497Z,18.88
2016-11-20T12:25:11.109Z,18.88
2016-11-20T12:26:12.443Z,18.89
2016-11-20T12:27:13.048Z,18.89
2016-11-20T12:28:12.481Z,18.90
2016-11-20T12:29:12.868Z,18.89
2016-11-20T12:30:12.576Z,18.89
2016-11-20T12:31:12.611Z,18.90
2016-11-20T12:32:11.697Z,18.89
2016-11-20T12:33:11.802Z,18.90
2016-11-20T12:34:12.066Z,18.90
2016-11-20T12:35:12.779Z,18.89
2016-11-20T12:36:13.573Z,18.90
2016-11-20T12:37:13.809Z,18.88
2016-11-20T12:38:09.925Z,18.88
2016-11-20T12:39:12.061Z,19.06
2016-11-20T12:40:12.118Z,18.93
2016-11-20T12:41:11.979Z,18.91
2016-11-20T12:42:12.051Z,18.91
2016-11-20T12:43:12.121Z,18.90
2016-11-20T12:44:11.163Z,18.89
2016-11-20T12:45:12.942Z,18.89
2016-11-20T12:46:11.959Z,18.88
2016-11-20T12:47:12.498Z,18.88
2016-11-20T12:48:12.472Z,18.89
2016-11-20T12:49:13.212Z,18.88
2016-11-20T12:50:12.651Z,18.92
2016-11-20T12:51:13.346Z,18.90
2016-11-20T12:52:12.961Z,18.89